sensor_id;sensor_type;location;lat;lon;timestamp;temperature;humidity
21844;DHT22;11084;52.482;9.108;2023-02-05T00:01:30;-0.50;99.90
21844;DHT22;11084;52.482;9.108;2023-02-05T00:03:57;-0.50;99.90
21844;DHT22;11084;52.482;9.108;2023-02-05T00:06:23;-0.50;99.90
21844;DHT22;11084;52.482;9.108;2023-02-05T00:08:49;-0.50;99.90
21844;DHT22;11084;52.482;9.108;2023-02-05T00:11:16;-0.50;99.90
21844;DHT22;11084;52.482;9.108;2023-02-05T00:13:42;-0.50;99.90
21844;DHT22;11084;52.482;9.108;2023-02-05T00:16:15;-0.50;99.90
21844;DHT22;11084;52.482;9.108;2023-02-05T00:18:43;-0.50;99.90
21844;DHT22;11084;52.482;9.108;2023-02-05T00:21:11;-0.50;99.90
21844;DHT22;11084;52.482;9.108;2023-02-05T00:23:37;-0.60;99.90
21844;DHT22;11084;52.482;9.108;2023-02-05T00:26:04;-0.50;99.90
21844;DHT22;11084;52.482;9.108;2023-02-05T00:28:32;-1.70;99.90
21844;DHT22;11084;52.482;9.108;2023-02-05T00:31:05;-0.60;99.90
21844;DHT22;11084;52.482;9.108;2023-02-05T00:33:32;-0.60;99.90
21844;DHT22;11084;52.482;9.108;2023-02-05T00:35:59;-0.70;99.90
21844;DHT22;11084;52.482;9.108;2023-02-05T00:38:25;-0.70;99.90
21844;DHT22;11084;52.482;9.108;2023-02-05T00:45:43;-0.70;99.90
21844;DHT22;11084;52.482;9.108;2023-02-05T00:48:09;-0.70;99.90
21844;DHT22;11084;52.482;9.108;2023-02-05T00:50:37;-0.70;99.90
21844;DHT22;11084;52.482;9.108;2023-02-05T00:53:03;-0.70;99.90
21844;DHT22;11084;52.482;9.108;2023-02-05T00:55:29;-0.70;99.90
21844;DHT22;11084;52.482;9.108;2023-02-05T00:57:55;-0.70;99.90
21844;DHT22;11084;52.482;9.108;2023-02-05T01:00:22;-0.70;99.90
21844;DHT22;11084;52.482;9.108;2023-02-05T01:02:48;0.10;99.90
21844;DHT22;11084;52.482;9.108;2023-02-05T01:05:15;-0.80;99.90
21844;DHT22;11084;52.482;9.108;2023-02-05T01:07:41;-0.80;99.90
21844;DHT22;11084;52.482;9.108;2023-02-05T01:10:07;-0.90;99.90
21844;DHT22;11084;52.482;9.108;2023-02-05T01:12:33;-0.80;99.90
21844;DHT22;11084;52.482;9.108;2023-02-05T01:15:00;0.30;99.90
21844;DHT22;11084;52.482;9.108;2023-02-05T01:19:53;-0.90;99.90
21844;DHT22;11084;52.482;9.108;2023-02-05T01:22:20;-0.90;99.90
21844;DHT22;11084;52.482;9.108;2023-02-05T01:24:47;-0.90;99.90
21844;DHT22;11084;52.482;9.108;2023-02-05T01:27:19;-0.90;99.90
21844;DHT22;11084;52.482;9.108;2023-02-05T01:29:46;-0.90;99.90
21844;DHT22;11084;52.482;9.108;2023-02-05T01:32:12;-0.90;99.90
21844;DHT22;11084;52.482;9.108;2023-02-05T01:34:38;-0.90;99.90
21844;DHT22;11084;52.482;9.108;2023-02-05T01:37:05;-1.00;99.90
21844;DHT22;11084;52.482;9.108;2023-02-05T01:39:31;-0.90;99.90
21844;DHT22;11084;52.482;9.108;2023-02-05T01:41:57;-1.00;99.90
21844;DHT22;11084;52.482;9.108;2023-02-05T01:44:24;-0.90;99.90
21844;DHT22;11084;52.482;9.108;2023-02-05T01:46:52;-0.80;99.90
21844;DHT22;11084;52.482;9.108;2023-02-05T01:51:50;-1.00;99.90
21844;DHT22;11084;52.482;9.108;2023-02-05T01:54:19;-1.00;99.90
21844;DHT22;11084;52.482;9.108;2023-02-05T01:56:54;-1.00;99.90
21844;DHT22;11084;52.482;9.108;2023-02-05T01:59:30;-0.90;99.90
21844;DHT22;11084;52.482;9.108;2023-02-05T02:01:59;-0.50;99.90
21844;DHT22;11084;52.482;9.108;2023-02-05T02:04:38;-0.90;99.90
21844;DHT22;11084;52.482;9.108;2023-02-05T02:07:12;-0.90;99.90
21844;DHT22;11084;52.482;9.108;2023-02-05T02:09:41;-0.90;99.90
21844;DHT22;11084;52.482;9.108;2023-02-05T02:12:10;-0.80;99.90
21844;DHT22;11084;52.482;9.108;2023-02-05T02:14:37;-0.90;99.90
21844;DHT22;11084;52.482;9.108;2023-02-05T02:17:05;-0.90;99.90
21844;DHT22;11084;52.482;9.108;2023-02-05T02:19:46;-0.80;99.90
21844;DHT22;11084;52.482;9.108;2023-02-05T02:31:46;-0.70;99.90
21844;DHT22;11084;52.482;9.108;2023-02-05T02:34:30;-0.80;99.90
21844;DHT22;11084;52.482;9.108;2023-02-05T02:37:16;-0.80;99.90
21844;DHT22;11084;52.482;9.108;2023-02-05T02:43:09;-0.70;99.90
21844;DHT22;11084;52.482;9.108;2023-02-05T02:45:45;-0.80;99.90
21844;DHT22;11084;52.482;9.108;2023-02-05T02:48:16;-0.80;99.90
21844;DHT22;11084;52.482;9.108;2023-02-05T02:50:47;-0.70;99.90
21844;DHT22;11084;52.482;9.108;2023-02-05T02:53:18;-0.70;99.90
21844;DHT22;11084;52.482;9.108;2023-02-05T02:55:47;-0.60;99.90
21844;DHT22;11084;52.482;9.108;2023-02-05T02:58:20;-0.80;99.90
21844;DHT22;11084;52.482;9.108;2023-02-05T03:00:51;-0.70;99.90
21844;DHT22;11084;52.482;9.108;2023-02-05T03:03:20;-0.70;99.90
21844;DHT22;11084;52.482;9.108;2023-02-05T03:05:48;-0.70;99.90
21844;DHT22;11084;52.482;9.108;2023-02-05T03:08:37;-0.70;99.90
21844;DHT22;11084;52.482;9.108;2023-02-05T03:11:13;-0.70;99.90
21844;DHT22;11084;52.482;9.108;2023-02-05T03:13:44;-0.60;99.90
21844;DHT22;11084;52.482;9.108;2023-02-05T03:16:13;-0.60;99.90
21844;DHT22;11084;52.482;9.108;2023-02-05T03:18:40;-2.70;99.90
21844;DHT22;11084;52.482;9.108;2023-02-05T03:21:18;-0.60;99.90
21844;DHT22;11084;52.482;9.108;2023-02-05T03:23:49;-0.70;99.90
21844;DHT22;11084;52.482;9.108;2023-02-05T03:26:32;-0.70;99.90
21844;DHT22;11084;52.482;9.108;2023-02-05T03:29:14;-0.60;99.90
21844;DHT22;11084;52.482;9.108;2023-02-05T03:49:47;-0.70;99.90
21844;DHT22;11084;52.482;9.108;2023-02-05T03:52:23;-0.70;99.90
21844;DHT22;11084;52.482;9.108;2023-02-05T03:55:05;-0.70;99.90
21844;DHT22;11084;52.482;9.108;2023-02-05T03:57:41;-0.70;99.90
21844;DHT22;11084;52.482;9.108;2023-02-05T04:00:12;-0.60;99.90
21844;DHT22;11084;52.482;9.108;2023-02-05T04:02:44;-0.60;99.90
21844;DHT22;11084;52.482;9.108;2023-02-05T04:05:15;-0.50;99.90
21844;DHT22;11084;52.482;9.108;2023-02-05T04:07:42;-0.50;99.90
21844;DHT22;11084;52.482;9.108;2023-02-05T04:10:10;-0.40;99.90
21844;DHT22;11084;52.482;9.108;2023-02-05T04:15:05;-0.40;99.90
21844;DHT22;11084;52.482;9.108;2023-02-05T04:20:01;-0.40;99.90
21844;DHT22;11084;52.482;9.108;2023-02-05T04:22:29;-0.40;99.90
21844;DHT22;11084;52.482;9.108;2023-02-05T04:24:56;-0.40;99.90
21844;DHT22;11084;52.482;9.108;2023-02-05T04:27:22;-0.40;99.90
21844;DHT22;11084;52.482;9.108;2023-02-05T04:29:49;-0.40;99.90
21844;DHT22;11084;52.482;9.108;2023-02-05T04:32:15;-0.30;99.90
21844;DHT22;11084;52.482;9.108;2023-02-05T04:34:41;-0.20;99.90
21844;DHT22;11084;52.482;9.108;2023-02-05T04:37:09;-0.30;99.90
21844;DHT22;11084;52.482;9.108;2023-02-05T04:39:35;-0.30;99.90
21844;DHT22;11084;52.482;9.108;2023-02-05T04:42:02;-0.20;99.90
21844;DHT22;11084;52.482;9.108;2023-02-05T04:44:28;-0.20;99.90
21844;DHT22;11084;52.482;9.108;2023-02-05T04:46:54;-0.20;99.90
21844;DHT22;11084;52.482;9.108;2023-02-05T04:49:20;-0.20;99.90
21844;DHT22;11084;52.482;9.108;2023-02-05T04:51:46;-0.20;99.90
21844;DHT22;11084;52.482;9.108;2023-02-05T04:54:12;-0.10;99.90
21844;DHT22;11084;52.482;9.108;2023-02-05T04:56:38;-0.20;99.90
21844;DHT22;11084;52.482;9.108;2023-02-05T04:59:04;-0.20;99.90
21844;DHT22;11084;52.482;9.108;2023-02-05T05:01:30;-0.20;99.90
21844;DHT22;11084;52.482;9.108;2023-02-05T05:03:56;-0.20;99.90
21844;DHT22;11084;52.482;9.108;2023-02-05T05:06:22;-0.20;99.90
21844;DHT22;11084;52.482;9.108;2023-02-05T05:08:48;-0.10;99.90
21844;DHT22;11084;52.482;9.108;2023-02-05T05:11:16;-0.10;99.90
21844;DHT22;11084;52.482;9.108;2023-02-05T05:13:44;0.00;99.90
21844;DHT22;11084;52.482;9.108;2023-02-05T05:16:11;0.00;99.90
21844;DHT22;11084;52.482;9.108;2023-02-05T05:18:39;0.00;99.90
21844;DHT22;11084;52.482;9.108;2023-02-05T05:21:06;0.10;99.90
21844;DHT22;11084;52.482;9.108;2023-02-05T05:23:32;0.00;99.90
21844;DHT22;11084;52.482;9.108;2023-02-05T05:26:01;0.10;99.90
21844;DHT22;11084;52.482;9.108;2023-02-05T05:28:32;0.10;99.90
21844;DHT22;11084;52.482;9.108;2023-02-05T05:31:04;0.20;99.90
21844;DHT22;11084;52.482;9.108;2023-02-05T05:33:33;0.20;99.90
21844;DHT22;11084;52.482;9.108;2023-02-05T05:35:59;0.20;99.90
21844;DHT22;11084;52.482;9.108;2023-02-05T05:40:51;0.20;99.90
21844;DHT22;11084;52.482;9.108;2023-02-05T05:43:35;0.20;99.90
21844;DHT22;11084;52.482;9.108;2023-02-05T05:46:16;0.20;99.90
21844;DHT22;11084;52.482;9.108;2023-02-05T05:49:00;0.20;99.90
21844;DHT22;11084;52.482;9.108;2023-02-05T05:51:29;0.20;99.90
21844;DHT22;11084;52.482;9.108;2023-02-05T05:53:55;0.30;99.90
21844;DHT22;11084;52.482;9.108;2023-02-05T05:56:22;0.30;99.90
21844;DHT22;11084;52.482;9.108;2023-02-05T05:58:49;0.30;99.90
21844;DHT22;11084;52.482;9.108;2023-02-05T06:01:27;0.30;99.90
21844;DHT22;11084;52.482;9.108;2023-02-05T06:03:53;0.40;99.90
21844;DHT22;11084;52.482;9.108;2023-02-05T06:11:12;0.30;99.90
21844;DHT22;11084;52.482;9.108;2023-02-05T06:13:38;0.40;99.90
21844;DHT22;11084;52.482;9.108;2023-02-05T06:16:04;0.40;99.90
21844;DHT22;11084;52.482;9.108;2023-02-05T06:18:31;0.40;99.90
21844;DHT22;11084;52.482;9.108;2023-02-05T06:20:57;0.40;99.90
21844;DHT22;11084;52.482;9.108;2023-02-05T06:23:23;0.40;99.90
21844;DHT22;11084;52.482;9.108;2023-02-05T06:25:48;0.40;99.90
21844;DHT22;11084;52.482;9.108;2023-02-05T06:28:14;0.50;99.90
21844;DHT22;11084;52.482;9.108;2023-02-05T06:30:40;0.40;99.90
21844;DHT22;11084;52.482;9.108;2023-02-05T06:33:06;0.50;99.90
21844;DHT22;11084;52.482;9.108;2023-02-05T06:35:32;0.50;99.90
21844;DHT22;11084;52.482;9.108;2023-02-05T06:37:58;0.50;99.90
21844;DHT22;11084;52.482;9.108;2023-02-05T06:42:52;0.50;99.90
21844;DHT22;11084;52.482;9.108;2023-02-05T06:45:19;0.60;99.90
21844;DHT22;11084;52.482;9.108;2023-02-05T06:47:45;0.60;99.90
21844;DHT22;11084;52.482;9.108;2023-02-05T06:50:11;0.60;99.90
21844;DHT22;11084;52.482;9.108;2023-02-05T06:52:37;0.60;99.90
21844;DHT22;11084;52.482;9.108;2023-02-05T06:55:03;0.60;99.90
21844;DHT22;11084;52.482;9.108;2023-02-05T06:57:29;0.60;99.90
21844;DHT22;11084;52.482;9.108;2023-02-05T06:59:57;0.70;99.90
21844;DHT22;11084;52.482;9.108;2023-02-05T07:02:22;0.70;99.90
21844;DHT22;11084;52.482;9.108;2023-02-05T07:04:49;0.60;99.90
21844;DHT22;11084;52.482;9.108;2023-02-05T07:07:15;0.70;99.90
21844;DHT22;11084;52.482;9.108;2023-02-05T07:09:42;0.70;99.90
21844;DHT22;11084;52.482;9.108;2023-02-05T07:12:08;0.70;99.90
21844;DHT22;11084;52.482;9.108;2023-02-05T07:14:38;0.70;99.90
21844;DHT22;11084;52.482;9.108;2023-02-05T07:17:05;0.70;99.90
21844;DHT22;11084;52.482;9.108;2023-02-05T07:19:32;0.70;99.90
21844;DHT22;11084;52.482;9.108;2023-02-05T07:21:59;0.80;99.90
21844;DHT22;11084;52.482;9.108;2023-02-05T07:24:25;0.80;99.90
21844;DHT22;11084;52.482;9.108;2023-02-05T07:26:51;0.80;99.90
21844;DHT22;11084;52.482;9.108;2023-02-05T07:29:17;0.80;99.90
21844;DHT22;11084;52.482;9.108;2023-02-05T07:31:43;0.80;99.90
21844;DHT22;11084;52.482;9.108;2023-02-05T07:34:09;0.90;99.90
21844;DHT22;11084;52.482;9.108;2023-02-05T07:36:35;0.90;99.90
21844;DHT22;11084;52.482;9.108;2023-02-05T07:39:01;0.90;99.90
21844;DHT22;11084;52.482;9.108;2023-02-05T07:41:27;0.90;99.90
21844;DHT22;11084;52.482;9.108;2023-02-05T07:43:53;0.90;99.90
21844;DHT22;11084;52.482;9.108;2023-02-05T07:46:20;0.90;99.90
21844;DHT22;11084;52.482;9.108;2023-02-05T07:48:47;0.90;99.90
21844;DHT22;11084;52.482;9.108;2023-02-05T07:51:19;0.90;99.90
21844;DHT22;11084;52.482;9.108;2023-02-05T07:53:47;1.00;99.90
21844;DHT22;11084;52.482;9.108;2023-02-05T07:56:13;1.00;99.90
21844;DHT22;11084;52.482;9.108;2023-02-05T07:58:40;1.00;99.90
21844;DHT22;11084;52.482;9.108;2023-02-05T08:01:07;1.00;99.90
21844;DHT22;11084;52.482;9.108;2023-02-05T08:03:34;1.00;99.90
21844;DHT22;11084;52.482;9.108;2023-02-05T08:06:05;1.00;99.90
21844;DHT22;11084;52.482;9.108;2023-02-05T08:08:32;1.00;99.90
21844;DHT22;11084;52.482;9.108;2023-02-05T08:11:04;1.00;99.90
21844;DHT22;11084;52.482;9.108;2023-02-05T08:13:31;1.00;99.90
21844;DHT22;11084;52.482;9.108;2023-02-05T08:15:57;1.10;99.90
21844;DHT22;11084;52.482;9.108;2023-02-05T08:18:23;1.10;99.90
21844;DHT22;11084;52.482;9.108;2023-02-05T08:20:53;1.10;99.90
21844;DHT22;11084;52.482;9.108;2023-02-05T08:23:23;1.10;99.90
21844;DHT22;11084;52.482;9.108;2023-02-05T08:25:53;1.10;99.90
21844;DHT22;11084;52.482;9.108;2023-02-05T08:30:47;1.20;99.90
21844;DHT22;11084;52.482;9.108;2023-02-05T08:33:13;1.30;99.90
21844;DHT22;11084;52.482;9.108;2023-02-05T08:35:39;1.30;99.90
21844;DHT22;11084;52.482;9.108;2023-02-05T08:40:32;1.30;99.90
21844;DHT22;11084;52.482;9.108;2023-02-05T08:42:58;1.30;99.90
21844;DHT22;11084;52.482;9.108;2023-02-05T08:45:25;1.40;99.90
21844;DHT22;11084;52.482;9.108;2023-02-05T08:47:52;1.30;99.90
21844;DHT22;11084;52.482;9.108;2023-02-05T08:50:19;1.30;99.90
21844;DHT22;11084;52.482;9.108;2023-02-05T08:52:45;1.40;99.90
21844;DHT22;11084;52.482;9.108;2023-02-05T08:55:11;1.40;99.90
21844;DHT22;11084;52.482;9.108;2023-02-05T08:57:37;1.40;99.90
21844;DHT22;11084;52.482;9.108;2023-02-05T09:00:04;1.40;99.90
21844;DHT22;11084;52.482;9.108;2023-02-05T09:02:30;1.40;99.90
21844;DHT22;11084;52.482;9.108;2023-02-05T09:04:56;1.40;99.90
21844;DHT22;11084;52.482;9.108;2023-02-05T09:07:22;1.40;99.90
21844;DHT22;11084;52.482;9.108;2023-02-05T09:09:48;1.40;99.90
21844;DHT22;11084;52.482;9.108;2023-02-05T09:12:17;1.50;99.90
21844;DHT22;11084;52.482;9.108;2023-02-05T09:14:43;1.50;99.90
21844;DHT22;11084;52.482;9.108;2023-02-05T09:17:10;1.50;99.90
21844;DHT22;11084;52.482;9.108;2023-02-05T09:19:39;1.50;99.90
21844;DHT22;11084;52.482;9.108;2023-02-05T09:22:06;1.60;99.90
21844;DHT22;11084;52.482;9.108;2023-02-05T09:24:35;1.60;99.90
21844;DHT22;11084;52.482;9.108;2023-02-05T09:27:02;1.70;99.90
21844;DHT22;11084;52.482;9.108;2023-02-05T09:29:28;1.70;99.90
21844;DHT22;11084;52.482;9.108;2023-02-05T09:31:55;1.80;99.90
21844;DHT22;11084;52.482;9.108;2023-02-05T09:34:21;1.80;99.90
21844;DHT22;11084;52.482;9.108;2023-02-05T09:36:47;1.80;99.90
21844;DHT22;11084;52.482;9.108;2023-02-05T09:39:13;1.90;99.90
21844;DHT22;11084;52.482;9.108;2023-02-05T09:50:20;2.00;99.90
21844;DHT22;11084;52.482;9.108;2023-02-05T09:52:58;2.10;99.90
21844;DHT22;11084;52.482;9.108;2023-02-05T09:55:32;2.10;99.90
21844;DHT22;11084;52.482;9.108;2023-02-05T09:58:20;2.10;99.90
21844;DHT22;11084;52.482;9.108;2023-02-05T10:00:53;2.20;99.90
21844;DHT22;11084;52.482;9.108;2023-02-05T10:03:58;2.20;99.90
21844;DHT22;11084;52.482;9.108;2023-02-05T10:12:36;2.30;99.90
21844;DHT22;11084;52.482;9.108;2023-02-05T10:18:46;2.30;99.90
21844;DHT22;11084;52.482;9.108;2023-02-05T10:27:23;2.60;99.90
21844;DHT22;11084;52.482;9.108;2023-02-05T10:30:20;2.60;99.90
21844;DHT22;11084;52.482;9.108;2023-02-05T10:34:14;2.60;99.90
21844;DHT22;11084;52.482;9.108;2023-02-05T10:36:23;2.80;99.90
21844;DHT22;11084;52.482;9.108;2023-02-05T10:38:53;3.00;99.90
21844;DHT22;11084;52.482;9.108;2023-02-05T10:41:30;3.00;99.90
21844;DHT22;11084;52.482;9.108;2023-02-05T10:44:41;2.90;99.90
21844;DHT22;11084;52.482;9.108;2023-02-05T10:47:20;2.90;99.90
21844;DHT22;11084;52.482;9.108;2023-02-05T10:50:01;2.90;99.90
21844;DHT22;11084;52.482;9.108;2023-02-05T10:52:30;2.90;99.90
21844;DHT22;11084;52.482;9.108;2023-02-05T10:54:56;3.00;99.90
21844;DHT22;11084;52.482;9.108;2023-02-05T10:57:22;3.00;99.90
21844;DHT22;11084;52.482;9.108;2023-02-05T10:59:54;2.90;99.90
21844;DHT22;11084;52.482;9.108;2023-02-05T11:02:30;3.00;99.90
21844;DHT22;11084;52.482;9.108;2023-02-05T11:05:04;3.00;99.90
21844;DHT22;11084;52.482;9.108;2023-02-05T11:07:43;3.00;99.90
21844;DHT22;11084;52.482;9.108;2023-02-05T11:12:51;3.20;99.90
21844;DHT22;11084;52.482;9.108;2023-02-05T11:15:30;3.20;99.90
21844;DHT22;11084;52.482;9.108;2023-02-05T11:18:05;3.20;99.90
21844;DHT22;11084;52.482;9.108;2023-02-05T11:20:33;3.30;99.90
21844;DHT22;11084;52.482;9.108;2023-02-05T11:23:06;3.30;99.90
21844;DHT22;11084;52.482;9.108;2023-02-05T11:26:09;3.30;99.90
21844;DHT22;11084;52.482;9.108;2023-02-05T11:28:35;3.40;99.90
21844;DHT22;11084;52.482;9.108;2023-02-05T11:31:24;3.40;99.90
21844;DHT22;11084;52.482;9.108;2023-02-05T11:34:12;3.50;99.90
21844;DHT22;11084;52.482;9.108;2023-02-05T11:36:50;3.50;99.90
21844;DHT22;11084;52.482;9.108;2023-02-05T11:39:35;3.60;99.90
21844;DHT22;11084;52.482;9.108;2023-02-05T11:42:16;3.70;99.90
21844;DHT22;11084;52.482;9.108;2023-02-05T11:44:54;3.60;99.90
21844;DHT22;11084;52.482;9.108;2023-02-05T11:47:34;3.80;99.90
21844;DHT22;11084;52.482;9.108;2023-02-05T11:50:03;3.80;99.90
21844;DHT22;11084;52.482;9.108;2023-02-05T11:52:33;4.00;99.90
21844;DHT22;11084;52.482;9.108;2023-02-05T11:57:36;3.80;99.90
21844;DHT22;11084;52.482;9.108;2023-02-05T12:00:21;4.00;99.90
21844;DHT22;11084;52.482;9.108;2023-02-05T12:02:47;4.00;99.90
21844;DHT22;11084;52.482;9.108;2023-02-05T12:05:20;4.00;99.90
21844;DHT22;11084;52.482;9.108;2023-02-05T12:07:56;4.10;99.90
21844;DHT22;11084;52.482;9.108;2023-02-05T12:10:42;4.10;99.90
21844;DHT22;11084;52.482;9.108;2023-02-05T12:16:05;4.20;99.90
21844;DHT22;11084;52.482;9.108;2023-02-05T12:21:41;4.20;99.90
21844;DHT22;11084;52.482;9.108;2023-02-05T12:27:07;4.10;99.90
21844;DHT22;11084;52.482;9.108;2023-02-05T12:29:51;4.20;99.90
21844;DHT22;11084;52.482;9.108;2023-02-05T12:35:39;4.10;99.90
21844;DHT22;11084;52.482;9.108;2023-02-05T12:41:32;4.10;99.90
21844;DHT22;11084;52.482;9.108;2023-02-05T12:44:29;4.10;99.90
21844;DHT22;11084;52.482;9.108;2023-02-05T12:58:23;4.10;99.90
21844;DHT22;11084;52.482;9.108;2023-02-05T13:00:56;4.00;99.90
21844;DHT22;11084;52.482;9.108;2023-02-05T13:03:41;4.00;99.90
21844;DHT22;11084;52.482;9.108;2023-02-05T13:06:25;4.10;99.90
21844;DHT22;11084;52.482;9.108;2023-02-05T13:09:00;4.10;99.90
21844;DHT22;11084;52.482;9.108;2023-02-05T13:11:34;4.10;99.90
21844;DHT22;11084;52.482;9.108;2023-02-05T13:14:18;4.00;99.90
21844;DHT22;11084;52.482;9.108;2023-02-05T13:16:53;4.10;99.90
21844;DHT22;11084;52.482;9.108;2023-02-05T13:19:37;4.10;99.90
21844;DHT22;11084;52.482;9.108;2023-02-05T13:22:12;4.10;99.90
21844;DHT22;11084;52.482;9.108;2023-02-05T13:25:04;4.00;99.90
21844;DHT22;11084;52.482;9.108;2023-02-05T13:28:03;4.10;99.90
21844;DHT22;11084;52.482;9.108;2023-02-05T13:31:26;4.10;99.90
21844;DHT22;11084;52.482;9.108;2023-02-05T13:34:01;4.00;99.90
21844;DHT22;11084;52.482;9.108;2023-02-05T13:46:19;4.00;99.90
21844;DHT22;11084;52.482;9.108;2023-02-05T13:52:33;4.00;99.90
21844;DHT22;11084;52.482;9.108;2023-02-05T13:55:06;4.00;99.90
21844;DHT22;11084;52.482;9.108;2023-02-05T13:58:08;4.10;99.90
21844;DHT22;11084;52.482;9.108;2023-02-05T14:00:38;4.00;99.90
21844;DHT22;11084;52.482;9.108;2023-02-05T14:03:07;4.00;99.90
21844;DHT22;11084;52.482;9.108;2023-02-05T14:05:39;3.90;99.90
21844;DHT22;11084;52.482;9.108;2023-02-05T14:08:22;4.00;99.90
21844;DHT22;11084;52.482;9.108;2023-02-05T14:11:02;4.00;99.90
21844;DHT22;11084;52.482;9.108;2023-02-05T14:13:31;3.90;99.90
21844;DHT22;11084;52.482;9.108;2023-02-05T14:24:01;3.90;99.90
21844;DHT22;11084;52.482;9.108;2023-02-05T14:29:43;3.80;99.90
21844;DHT22;11084;52.482;9.108;2023-02-05T14:32:54;3.70;99.90
21844;DHT22;11084;52.482;9.108;2023-02-05T14:35:26;3.70;99.90
21844;DHT22;11084;52.482;9.108;2023-02-05T14:37:54;4.40;99.90
21844;DHT22;11084;52.482;9.108;2023-02-05T14:40:34;3.60;99.90
21844;DHT22;11084;52.482;9.108;2023-02-05T14:43:21;3.60;99.90
21844;DHT22;11084;52.482;9.108;2023-02-05T14:45:53;3.50;99.90
21844;DHT22;11084;52.482;9.108;2023-02-05T14:48:26;3.50;99.90
21844;DHT22;11084;52.482;9.108;2023-02-05T14:51:06;3.50;99.90
21844;DHT22;11084;52.482;9.108;2023-02-05T14:53:39;3.50;99.90
21844;DHT22;11084;52.482;9.108;2023-02-05T14:56:06;3.50;99.90
21844;DHT22;11084;52.482;9.108;2023-02-05T14:58:35;3.50;99.90
21844;DHT22;11084;52.482;9.108;2023-02-05T15:04:04;3.40;99.90
21844;DHT22;11084;52.482;9.108;2023-02-05T15:06:38;3.40;99.90
21844;DHT22;11084;52.482;9.108;2023-02-05T15:09:18;3.40;99.90
21844;DHT22;11084;52.482;9.108;2023-02-05T15:14:40;3.40;99.90
21844;DHT22;11084;52.482;9.108;2023-02-05T15:19:46;3.40;99.90
21844;DHT22;11084;52.482;9.108;2023-02-05T15:22:24;3.50;99.90
21844;DHT22;11084;52.482;9.108;2023-02-05T15:24:52;3.50;99.90
21844;DHT22;11084;52.482;9.108;2023-02-05T15:27:23;3.50;99.90
21844;DHT22;11084;52.482;9.108;2023-02-05T15:30:07;3.40;99.90
21844;DHT22;11084;52.482;9.108;2023-02-05T15:33:02;3.40;99.90
21844;DHT22;11084;52.482;9.108;2023-02-05T15:35:33;3.50;99.90
21844;DHT22;11084;52.482;9.108;2023-02-05T15:38:02;3.40;99.90
21844;DHT22;11084;52.482;9.108;2023-02-05T15:40:37;3.40;99.90
21844;DHT22;11084;52.482;9.108;2023-02-05T15:43:25;3.50;99.90
21844;DHT22;11084;52.482;9.108;2023-02-05T15:45:59;3.60;99.90
21844;DHT22;11084;52.482;9.108;2023-02-05T15:48:30;3.60;99.90
21844;DHT22;11084;52.482;9.108;2023-02-05T15:51:01;3.60;99.90
21844;DHT22;11084;52.482;9.108;2023-02-05T15:53:47;3.60;99.90
21844;DHT22;11084;52.482;9.108;2023-02-05T15:56:22;3.60;99.90
21844;DHT22;11084;52.482;9.108;2023-02-05T15:58:58;3.60;99.90
21844;DHT22;11084;52.482;9.108;2023-02-05T16:01:42;3.50;99.90
21844;DHT22;11084;52.482;9.108;2023-02-05T16:04:34;3.60;99.90
21844;DHT22;11084;52.482;9.108;2023-02-05T16:07:21;3.60;99.90
21844;DHT22;11084;52.482;9.108;2023-02-05T16:09:51;3.50;99.90
21844;DHT22;11084;52.482;9.108;2023-02-05T16:12:20;3.60;99.90
21844;DHT22;11084;52.482;9.108;2023-02-05T16:14:59;3.50;99.90
21844;DHT22;11084;52.482;9.108;2023-02-05T16:17:41;3.50;99.90
21844;DHT22;11084;52.482;9.108;2023-02-05T16:20:21;3.50;99.90
21844;DHT22;11084;52.482;9.108;2023-02-05T16:25:43;3.50;99.90
21844;DHT22;11084;52.482;9.108;2023-02-05T16:28:16;3.50;99.90
21844;DHT22;11084;52.482;9.108;2023-02-05T16:30:45;3.40;99.90
21844;DHT22;11084;52.482;9.108;2023-02-05T16:36:12;3.40;99.90
21844;DHT22;11084;52.482;9.108;2023-02-05T16:38:40;3.40;99.90
21844;DHT22;11084;52.482;9.108;2023-02-05T16:41:30;3.40;99.90
21844;DHT22;11084;52.482;9.108;2023-02-05T16:43:59;3.40;99.90
21844;DHT22;11084;52.482;9.108;2023-02-05T16:46:35;3.30;99.90
21844;DHT22;11084;52.482;9.108;2023-02-05T16:49:27;3.40;99.90
21844;DHT22;11084;52.482;9.108;2023-02-05T16:51:53;3.30;99.90
21844;DHT22;11084;52.482;9.108;2023-02-05T16:54:24;3.30;99.90
21844;DHT22;11084;52.482;9.108;2023-02-05T16:56:59;3.30;99.90
21844;DHT22;11084;52.482;9.108;2023-02-05T16:59:54;3.30;99.90
21844;DHT22;11084;52.482;9.108;2023-02-05T17:02:34;3.30;99.90
21844;DHT22;11084;52.482;9.108;2023-02-05T17:05:22;3.30;99.90
21844;DHT22;11084;52.482;9.108;2023-02-05T17:08:10;3.30;99.90
21844;DHT22;11084;52.482;9.108;2023-02-05T17:10:51;3.30;99.90
21844;DHT22;11084;52.482;9.108;2023-02-05T17:19:01;3.30;99.90
21844;DHT22;11084;52.482;9.108;2023-02-05T17:21:30;3.30;99.90
21844;DHT22;11084;52.482;9.108;2023-02-05T17:23:58;3.30;99.90
21844;DHT22;11084;52.482;9.108;2023-02-05T17:26:33;3.20;99.90
21844;DHT22;11084;52.482;9.108;2023-02-05T17:29:04;3.20;99.90
21844;DHT22;11084;52.482;9.108;2023-02-05T17:31:36;3.20;99.90
21844;DHT22;11084;52.482;9.108;2023-02-05T17:34:03;3.20;99.90
21844;DHT22;11084;52.482;9.108;2023-02-05T17:41:27;3.20;99.90
21844;DHT22;11084;52.482;9.108;2023-02-05T17:44:14;3.10;99.90
21844;DHT22;11084;52.482;9.108;2023-02-05T17:46:42;3.20;99.90
21844;DHT22;11084;52.482;9.108;2023-02-05T17:49:08;3.20;99.90
21844;DHT22;11084;52.482;9.108;2023-02-05T17:51:35;3.20;99.90
21844;DHT22;11084;52.482;9.108;2023-02-05T17:54:11;3.10;99.90
21844;DHT22;11084;52.482;9.108;2023-02-05T17:56:38;3.10;99.90
21844;DHT22;11084;52.482;9.108;2023-02-05T17:59:11;3.20;99.90
21844;DHT22;11084;52.482;9.108;2023-02-05T18:01:39;3.20;99.90
21844;DHT22;11084;52.482;9.108;2023-02-05T18:04:05;3.20;99.90
21844;DHT22;11084;52.482;9.108;2023-02-05T18:06:33;3.10;99.90
21844;DHT22;11084;52.482;9.108;2023-02-05T18:09:00;3.10;99.90
21844;DHT22;11084;52.482;9.108;2023-02-05T18:11:26;3.20;99.90
21844;DHT22;11084;52.482;9.108;2023-02-05T18:13:52;3.10;99.90
21844;DHT22;11084;52.482;9.108;2023-02-05T18:16:18;3.10;99.90
21844;DHT22;11084;52.482;9.108;2023-02-05T18:18:44;3.10;99.90
21844;DHT22;11084;52.482;9.108;2023-02-05T18:21:10;3.10;99.90
21844;DHT22;11084;52.482;9.108;2023-02-05T18:23:40;3.10;99.90
21844;DHT22;11084;52.482;9.108;2023-02-05T18:26:07;3.10;99.90
21844;DHT22;11084;52.482;9.108;2023-02-05T18:28:34;3.10;99.90
21844;DHT22;11084;52.482;9.108;2023-02-05T18:31:06;3.10;99.90
21844;DHT22;11084;52.482;9.108;2023-02-05T18:33:36;3.10;99.90
21844;DHT22;11084;52.482;9.108;2023-02-05T18:36:12;3.10;99.90
21844;DHT22;11084;52.482;9.108;2023-02-05T18:38:40;3.10;99.90
21844;DHT22;11084;52.482;9.108;2023-02-05T18:41:10;3.10;99.90
21844;DHT22;11084;52.482;9.108;2023-02-05T18:43:41;3.10;99.90
21844;DHT22;11084;52.482;9.108;2023-02-05T18:46:15;3.10;99.90
21844;DHT22;11084;52.482;9.108;2023-02-05T18:48:42;3.10;99.90
21844;DHT22;11084;52.482;9.108;2023-02-05T18:51:12;3.10;99.90
21844;DHT22;11084;52.482;9.108;2023-02-05T18:53:40;3.20;99.90
21844;DHT22;11084;52.482;9.108;2023-02-05T18:56:19;3.10;99.90
21844;DHT22;11084;52.482;9.108;2023-02-05T18:58:52;3.20;99.90